sensor_id;sensor_type;location;lat;lon;timestamp;temperature;humidity
22130;DHT22;11231;50.746;4.272;2023-04-24T00:01:29;11.20;99.90
22130;DHT22;11231;50.746;4.272;2023-04-24T00:03:56;11.10;99.90
22130;DHT22;11231;50.746;4.272;2023-04-24T00:06:26;11.00;99.90
22130;DHT22;11231;50.746;4.272;2023-04-24T00:08:59;11.00;99.90
22130;DHT22;11231;50.746;4.272;2023-04-24T00:11:26;11.00;99.90
22130;DHT22;11231;50.746;4.272;2023-04-24T00:13:52;10.90;99.90
22130;DHT22;11231;50.746;4.272;2023-04-24T00:16:19;11.00;99.90
22130;DHT22;11231;50.746;4.272;2023-04-24T00:18:44;10.90;99.90
22130;DHT22;11231;50.746;4.272;2023-04-24T00:21:10;11.00;99.90
22130;DHT22;11231;50.746;4.272;2023-04-24T00:23:36;11.00;99.90
22130;DHT22;11231;50.746;4.272;2023-04-24T00:26:02;11.00;99.90
22130;DHT22;11231;50.746;4.272;2023-04-24T00:28:28;11.00;99.90
22130;DHT22;11231;50.746;4.272;2023-04-24T00:30:54;11.00;99.90
22130;DHT22;11231;50.746;4.272;2023-04-24T00:33:19;11.10;99.90
22130;DHT22;11231;50.746;4.272;2023-04-24T00:35:46;11.20;99.90
22130;DHT22;11231;50.746;4.272;2023-04-24T00:38:11;11.10;99.90
22130;DHT22;11231;50.746;4.272;2023-04-24T00:40:37;11.00;99.90
22130;DHT22;11231;50.746;4.272;2023-04-24T00:43:03;11.00;99.90
22130;DHT22;11231;50.746;4.272;2023-04-24T00:45:29;11.00;99.90
22130;DHT22;11231;50.746;4.272;2023-04-24T00:47:57;11.00;99.90
22130;DHT22;11231;50.746;4.272;2023-04-24T00:50:24;10.80;99.90
22130;DHT22;11231;50.746;4.272;2023-04-24T00:52:50;10.70;99.90
22130;DHT22;11231;50.746;4.272;2023-04-24T00:55:17;10.70;99.90
22130;DHT22;11231;50.746;4.272;2023-04-24T00:57:43;10.50;99.90
22130;DHT22;11231;50.746;4.272;2023-04-24T01:00:09;10.40;99.90
22130;DHT22;11231;50.746;4.272;2023-04-24T01:02:39;10.30;99.90
22130;DHT22;11231;50.746;4.272;2023-04-24T01:05:09;10.30;99.90
22130;DHT22;11231;50.746;4.272;2023-04-24T01:07:35;10.30;99.90
22130;DHT22;11231;50.746;4.272;2023-04-24T01:10:02;10.30;99.90
22130;DHT22;11231;50.746;4.272;2023-04-24T01:12:28;10.30;99.90
22130;DHT22;11231;50.746;4.272;2023-04-24T01:14:54;10.30;99.90
22130;DHT22;11231;50.746;4.272;2023-04-24T01:17:20;10.40;99.90
22130;DHT22;11231;50.746;4.272;2023-04-24T01:19:46;10.20;99.90
22130;DHT22;11231;50.746;4.272;2023-04-24T01:22:16;10.20;99.90
22130;DHT22;11231;50.746;4.272;2023-04-24T01:24:42;10.20;99.90
22130;DHT22;11231;50.746;4.272;2023-04-24T01:27:11;10.20;99.90
22130;DHT22;11231;50.746;4.272;2023-04-24T01:29:37;10.10;99.90
22130;DHT22;11231;50.746;4.272;2023-04-24T01:32:04;10.10;99.90
22130;DHT22;11231;50.746;4.272;2023-04-24T01:34:30;10.00;99.90
22130;DHT22;11231;50.746;4.272;2023-04-24T01:36:56;10.00;99.90
22130;DHT22;11231;50.746;4.272;2023-04-24T01:39:22;10.10;99.90
22130;DHT22;11231;50.746;4.272;2023-04-24T01:41:53;10.10;99.90
22130;DHT22;11231;50.746;4.272;2023-04-24T01:44:19;10.10;99.90
22130;DHT22;11231;50.746;4.272;2023-04-24T01:46:45;10.10;99.90
22130;DHT22;11231;50.746;4.272;2023-04-24T01:49:11;10.10;99.90
22130;DHT22;11231;50.746;4.272;2023-04-24T01:51:37;10.20;99.90
22130;DHT22;11231;50.746;4.272;2023-04-24T01:54:03;10.10;99.90
22130;DHT22;11231;50.746;4.272;2023-04-24T01:56:33;10.20;99.90
22130;DHT22;11231;50.746;4.272;2023-04-24T01:59:00;10.10;99.90
22130;DHT22;11231;50.746;4.272;2023-04-24T02:01:26;10.00;99.90
22130;DHT22;11231;50.746;4.272;2023-04-24T02:03:52;10.00;99.90
22130;DHT22;11231;50.746;4.272;2023-04-24T02:06:17;10.10;99.90
22130;DHT22;11231;50.746;4.272;2023-04-24T02:08:43;10.10;99.90
22130;DHT22;11231;50.746;4.272;2023-04-24T02:11:10;10.20;99.90
22130;DHT22;11231;50.746;4.272;2023-04-24T02:13:35;10.20;99.90
22130;DHT22;11231;50.746;4.272;2023-04-24T02:16:02;10.00;99.90
22130;DHT22;11231;50.746;4.272;2023-04-24T02:18:29;10.00;99.90
22130;DHT22;11231;50.746;4.272;2023-04-24T02:20:56;10.00;99.90
22130;DHT22;11231;50.746;4.272;2023-04-24T02:23:22;10.00;99.90
22130;DHT22;11231;50.746;4.272;2023-04-24T02:25:47;10.00;99.90
22130;DHT22;11231;50.746;4.272;2023-04-24T02:28:14;10.00;99.90
22130;DHT22;11231;50.746;4.272;2023-04-24T02:30:39;9.90;99.90
22130;DHT22;11231;50.746;4.272;2023-04-24T02:33:05;10.00;99.90
22130;DHT22;11231;50.746;4.272;2023-04-24T02:35:31;10.00;99.90
22130;DHT22;11231;50.746;4.272;2023-04-24T02:37:57;10.10;99.90
22130;DHT22;11231;50.746;4.272;2023-04-24T02:40:23;10.10;99.90
22130;DHT22;11231;50.746;4.272;2023-04-24T02:42:48;10.10;99.90
22130;DHT22;11231;50.746;4.272;2023-04-24T02:45:14;10.10;99.90
22130;DHT22;11231;50.746;4.272;2023-04-24T02:47:41;10.10;99.90
22130;DHT22;11231;50.746;4.272;2023-04-24T02:50:07;10.20;99.90
22130;DHT22;11231;50.746;4.272;2023-04-24T02:52:33;10.10;99.90
22130;DHT22;11231;50.746;4.272;2023-04-24T02:54:59;10.10;99.90
22130;DHT22;11231;50.746;4.272;2023-04-24T02:57:25;10.00;99.90
22130;DHT22;11231;50.746;4.272;2023-04-24T02:59:50;10.00;99.90
22130;DHT22;11231;50.746;4.272;2023-04-24T03:02:16;9.90;99.90
22130;DHT22;11231;50.746;4.272;2023-04-24T03:04:42;9.90;99.90
22130;DHT22;11231;50.746;4.272;2023-04-24T03:07:08;9.90;99.90
22130;DHT22;11231;50.746;4.272;2023-04-24T03:09:36;9.90;99.90
22130;DHT22;11231;50.746;4.272;2023-04-24T03:12:02;10.00;99.90
22130;DHT22;11231;50.746;4.272;2023-04-24T03:14:28;10.10;99.90
22130;DHT22;11231;50.746;4.272;2023-04-24T03:16:56;10.00;99.90
22130;DHT22;11231;50.746;4.272;2023-04-24T03:19:22;9.90;99.90
22130;DHT22;11231;50.746;4.272;2023-04-24T03:21:58;10.00;99.90
22130;DHT22;11231;50.746;4.272;2023-04-24T03:24:23;10.10;99.90
22130;DHT22;11231;50.746;4.272;2023-04-24T03:26:50;10.10;99.90
22130;DHT22;11231;50.746;4.272;2023-04-24T03:29:44;10.10;99.90
22130;DHT22;11231;50.746;4.272;2023-04-24T03:32:10;10.20;99.90
22130;DHT22;11231;50.746;4.272;2023-04-24T03:34:37;10.20;99.90
22130;DHT22;11231;50.746;4.272;2023-04-24T03:37:04;10.20;99.90
22130;DHT22;11231;50.746;4.272;2023-04-24T03:39:31;10.10;99.90
22130;DHT22;11231;50.746;4.272;2023-04-24T03:41:57;10.00;99.90
22130;DHT22;11231;50.746;4.272;2023-04-24T03:44:31;9.90;99.90
22130;DHT22;11231;50.746;4.272;2023-04-24T03:46:59;9.80;99.90
22130;DHT22;11231;50.746;4.272;2023-04-24T03:49:26;9.80;99.90
22130;DHT22;11231;50.746;4.272;2023-04-24T03:51:52;9.90;99.90
22130;DHT22;11231;50.746;4.272;2023-04-24T03:54:23;9.90;99.90
22130;DHT22;11231;50.746;4.272;2023-04-24T03:56:50;9.90;99.90
22130;DHT22;11231;50.746;4.272;2023-04-24T03:59:17;10.00;99.90
22130;DHT22;11231;50.746;4.272;2023-04-24T04:01:47;10.00;99.90
22130;DHT22;11231;50.746;4.272;2023-04-24T04:04:15;10.00;99.90
22130;DHT22;11231;50.746;4.272;2023-04-24T04:06:43;10.00;99.90
22130;DHT22;11231;50.746;4.272;2023-04-24T04:09:10;10.00;99.90
22130;DHT22;11231;50.746;4.272;2023-04-24T04:11:36;10.10;99.90
22130;DHT22;11231;50.746;4.272;2023-04-24T04:14:02;10.20;99.90
22130;DHT22;11231;50.746;4.272;2023-04-24T04:16:29;10.30;99.90
22130;DHT22;11231;50.746;4.272;2023-04-24T04:19:01;10.30;99.90
22130;DHT22;11231;50.746;4.272;2023-04-24T04:21:28;10.40;99.90
22130;DHT22;11231;50.746;4.272;2023-04-24T04:24:04;10.40;99.90
22130;DHT22;11231;50.746;4.272;2023-04-24T04:26:35;10.40;99.90
22130;DHT22;11231;50.746;4.272;2023-04-24T04:29:06;10.40;99.90
22130;DHT22;11231;50.746;4.272;2023-04-24T04:31:34;10.50;99.90
22130;DHT22;11231;50.746;4.272;2023-04-24T04:34:04;10.50;99.90
22130;DHT22;11231;50.746;4.272;2023-04-24T04:36:33;10.40;99.90
22130;DHT22;11231;50.746;4.272;2023-04-24T04:39:13;10.40;99.90
22130;DHT22;11231;50.746;4.272;2023-04-24T04:41:51;10.30;99.90
22130;DHT22;11231;50.746;4.272;2023-04-24T04:44:20;10.20;99.90
22130;DHT22;11231;50.746;4.272;2023-04-24T04:46:46;10.00;99.90
22130;DHT22;11231;50.746;4.272;2023-04-24T04:49:21;9.90;99.90
22130;DHT22;11231;50.746;4.272;2023-04-24T04:51:50;10.00;99.90
22130;DHT22;11231;50.746;4.272;2023-04-24T04:54:17;9.90;99.90
22130;DHT22;11231;50.746;4.272;2023-04-24T04:56:43;9.80;99.90
22130;DHT22;11231;50.746;4.272;2023-04-24T04:59:09;9.80;99.90
22130;DHT22;11231;50.746;4.272;2023-04-24T05:01:37;9.80;99.90
22130;DHT22;11231;50.746;4.272;2023-04-24T05:04:05;9.80;99.90
22130;DHT22;11231;50.746;4.272;2023-04-24T05:06:31;9.90;99.90
22130;DHT22;11231;50.746;4.272;2023-04-24T05:08:58;9.90;99.90
22130;DHT22;11231;50.746;4.272;2023-04-24T05:11:31;9.90;99.90
22130;DHT22;11231;50.746;4.272;2023-04-24T05:13:58;10.00;99.90
22130;DHT22;11231;50.746;4.272;2023-04-24T05:16:32;9.90;99.90
22130;DHT22;11231;50.746;4.272;2023-04-24T05:18:58;9.80;99.90
22130;DHT22;11231;50.746;4.272;2023-04-24T05:21:29;9.70;99.90
22130;DHT22;11231;50.746;4.272;2023-04-24T05:23:55;9.60;99.90
22130;DHT22;11231;50.746;4.272;2023-04-24T05:26:39;9.60;99.90
22130;DHT22;11231;50.746;4.272;2023-04-24T05:29:07;9.70;99.90
22130;DHT22;11231;50.746;4.272;2023-04-24T05:31:32;9.80;99.90
22130;DHT22;11231;50.746;4.272;2023-04-24T05:33:58;9.90;99.90
22130;DHT22;11231;50.746;4.272;2023-04-24T05:36:25;9.90;99.90
22130;DHT22;11231;50.746;4.272;2023-04-24T05:38:53;9.80;99.90
22130;DHT22;11231;50.746;4.272;2023-04-24T05:41:19;9.70;99.90
22130;DHT22;11231;50.746;4.272;2023-04-24T05:43:45;9.70;99.90
22130;DHT22;11231;50.746;4.272;2023-04-24T05:46:11;9.80;99.90
22130;DHT22;11231;50.746;4.272;2023-04-24T05:48:38;9.90;99.90
22130;DHT22;11231;50.746;4.272;2023-04-24T05:51:04;10.00;99.90
22130;DHT22;11231;50.746;4.272;2023-04-24T05:53:30;9.90;99.90
22130;DHT22;11231;50.746;4.272;2023-04-24T05:55:56;10.00;99.90
22130;DHT22;11231;50.746;4.272;2023-04-24T05:58:22;10.00;99.90
22130;DHT22;11231;50.746;4.272;2023-04-24T06:00:49;10.00;99.90
22130;DHT22;11231;50.746;4.272;2023-04-24T06:03:16;10.00;99.90
22130;DHT22;11231;50.746;4.272;2023-04-24T06:05:42;10.10;99.90
22130;DHT22;11231;50.746;4.272;2023-04-24T06:08:08;10.10;99.90
22130;DHT22;11231;50.746;4.272;2023-04-24T06:10:37;10.10;99.90
22130;DHT22;11231;50.746;4.272;2023-04-24T06:13:05;10.30;99.90
22130;DHT22;11231;50.746;4.272;2023-04-24T06:15:36;10.20;99.90
22130;DHT22;11231;50.746;4.272;2023-04-24T06:18:07;10.20;99.90
22130;DHT22;11231;50.746;4.272;2023-04-24T06:20:34;10.20;99.90
22130;DHT22;11231;50.746;4.272;2023-04-24T06:23:01;10.10;99.90
22130;DHT22;11231;50.746;4.272;2023-04-24T06:25:28;10.10;99.90
22130;DHT22;11231;50.746;4.272;2023-04-24T06:27:56;10.10;99.90
22130;DHT22;11231;50.746;4.272;2023-04-24T06:30:23;10.10;99.90
22130;DHT22;11231;50.746;4.272;2023-04-24T06:32:48;10.20;99.90
22130;DHT22;11231;50.746;4.272;2023-04-24T06:35:14;10.10;99.90
22130;DHT22;11231;50.746;4.272;2023-04-24T06:37:42;10.10;99.90
22130;DHT22;11231;50.746;4.272;2023-04-24T06:40:09;10.20;99.90
22130;DHT22;11231;50.746;4.272;2023-04-24T06:42:36;10.10;99.90
22130;DHT22;11231;50.746;4.272;2023-04-24T06:45:03;9.90;99.90
22130;DHT22;11231;50.746;4.272;2023-04-24T06:47:29;10.00;99.90
22130;DHT22;11231;50.746;4.272;2023-04-24T06:49:55;10.10;99.90
22130;DHT22;11231;50.746;4.272;2023-04-24T06:52:21;10.10;99.90
22130;DHT22;11231;50.746;4.272;2023-04-24T06:54:47;10.20;99.90
22130;DHT22;11231;50.746;4.272;2023-04-24T06:57:13;10.40;99.90
22130;DHT22;11231;50.746;4.272;2023-04-24T06:59:38;10.40;99.90
22130;DHT22;11231;50.746;4.272;2023-04-24T07:02:04;10.50;99.90
22130;DHT22;11231;50.746;4.272;2023-04-24T07:04:30;10.60;99.90
22130;DHT22;11231;50.746;4.272;2023-04-24T07:06:56;10.70;99.90
22130;DHT22;11231;50.746;4.272;2023-04-24T07:09:24;10.60;99.90
22130;DHT22;11231;50.746;4.272;2023-04-24T07:11:51;10.30;99.90
22130;DHT22;11231;50.746;4.272;2023-04-24T07:14:19;10.50;99.90
22130;DHT22;11231;50.746;4.272;2023-04-24T07:16:45;10.60;99.90
22130;DHT22;11231;50.746;4.272;2023-04-24T07:19:12;10.80;99.90
22130;DHT22;11231;50.746;4.272;2023-04-24T07:21:38;10.80;99.90
22130;DHT22;11231;50.746;4.272;2023-04-24T07:24:03;10.90;99.90
22130;DHT22;11231;50.746;4.272;2023-04-24T07:26:30;10.80;99.90
22130;DHT22;11231;50.746;4.272;2023-04-24T07:28:57;10.80;99.90
22130;DHT22;11231;50.746;4.272;2023-04-24T07:31:23;10.70;99.90
22130;DHT22;11231;50.746;4.272;2023-04-24T07:33:50;10.70;99.90
22130;DHT22;11231;50.746;4.272;2023-04-24T07:36:16;10.80;99.90
22130;DHT22;11231;50.746;4.272;2023-04-24T07:38:47;10.90;99.90
22130;DHT22;11231;50.746;4.272;2023-04-24T07:41:14;11.00;99.90
22130;DHT22;11231;50.746;4.272;2023-04-24T07:43:40;11.10;99.90
22130;DHT22;11231;50.746;4.272;2023-04-24T07:46:07;10.90;99.90
22130;DHT22;11231;50.746;4.272;2023-04-24T07:48:33;11.00;99.90
22130;DHT22;11231;50.746;4.272;2023-04-24T07:50:59;11.20;99.90
22130;DHT22;11231;50.746;4.272;2023-04-24T07:53:24;11.30;99.90
22130;DHT22;11231;50.746;4.272;2023-04-24T07:55:50;11.40;99.90
22130;DHT22;11231;50.746;4.272;2023-04-24T07:58:16;11.50;99.90
22130;DHT22;11231;50.746;4.272;2023-04-24T08:00:42;11.10;99.90
22130;DHT22;11231;50.746;4.272;2023-04-24T08:03:07;10.70;99.90
22130;DHT22;11231;50.746;4.272;2023-04-24T08:05:33;10.60;99.90
22130;DHT22;11231;50.746;4.272;2023-04-24T08:07:59;10.70;99.90
22130;DHT22;11231;50.746;4.272;2023-04-24T08:10:25;11.00;99.90
22130;DHT22;11231;50.746;4.272;2023-04-24T08:12:51;11.20;99.90
22130;DHT22;11231;50.746;4.272;2023-04-24T08:15:17;11.40;99.90
22130;DHT22;11231;50.746;4.272;2023-04-24T08:17:43;11.60;99.90
22130;DHT22;11231;50.746;4.272;2023-04-24T08:20:10;11.70;99.90
22130;DHT22;11231;50.746;4.272;2023-04-24T08:22:39;11.70;99.90
22130;DHT22;11231;50.746;4.272;2023-04-24T08:25:06;12.00;99.90
22130;DHT22;11231;50.746;4.272;2023-04-24T08:27:32;12.20;99.90
22130;DHT22;11231;50.746;4.272;2023-04-24T08:29:58;12.60;99.90
22130;DHT22;11231;50.746;4.272;2023-04-24T08:32:27;13.40;99.90
22130;DHT22;11231;50.746;4.272;2023-04-24T08:34:56;14.00;99.90
22130;DHT22;11231;50.746;4.272;2023-04-24T08:37:23;14.00;99.90
22130;DHT22;11231;50.746;4.272;2023-04-24T08:39:51;13.80;99.90
22130;DHT22;11231;50.746;4.272;2023-04-24T08:42:18;13.30;99.90
22130;DHT22;11231;50.746;4.272;2023-04-24T08:44:45;12.90;99.90
22130;DHT22;11231;50.746;4.272;2023-04-24T08:47:11;12.90;99.90
22130;DHT22;11231;50.746;4.272;2023-04-24T08:49:38;12.70;99.90
22130;DHT22;11231;50.746;4.272;2023-04-24T08:52:05;12.80;99.90
22130;DHT22;11231;50.746;4.272;2023-04-24T08:54:34;13.00;99.90
22130;DHT22;11231;50.746;4.272;2023-04-24T08:57:01;13.10;99.90
22130;DHT22;11231;50.746;4.272;2023-04-24T08:59:30;14.00;99.90
22130;DHT22;11231;50.746;4.272;2023-04-24T09:01:56;14.70;99.90
22130;DHT22;11231;50.746;4.272;2023-04-24T09:04:23;14.50;99.90
22130;DHT22;11231;50.746;4.272;2023-04-24T09:06:58;13.90;99.90
22130;DHT22;11231;50.746;4.272;2023-04-24T09:09:24;13.40;99.90
22130;DHT22;11231;50.746;4.272;2023-04-24T09:11:51;13.00;99.90
22130;DHT22;11231;50.746;4.272;2023-04-24T09:14:19;12.70;99.90
22130;DHT22;11231;50.746;4.272;2023-04-24T09:16:46;12.60;99.90
22130;DHT22;11231;50.746;4.272;2023-04-24T09:19:12;12.60;99.90
22130;DHT22;11231;50.746;4.272;2023-04-24T09:21:38;12.60;99.90
22130;DHT22;11231;50.746;4.272;2023-04-24T09:24:07;12.80;99.90
22130;DHT22;11231;50.746;4.272;2023-04-24T09:26:35;12.80;99.90
22130;DHT22;11231;50.746;4.272;2023-04-24T09:29:02;12.90;99.90
22130;DHT22;11231;50.746;4.272;2023-04-24T09:31:29;12.80;99.90
22130;DHT22;11231;50.746;4.272;2023-04-24T09:34:03;12.70;99.90
22130;DHT22;11231;50.746;4.272;2023-04-24T09:36:35;12.80;99.90
22130;DHT22;11231;50.746;4.272;2023-04-24T09:39:05;13.10;99.90
22130;DHT22;11231;50.746;4.272;2023-04-24T09:41:32;13.30;99.90
22130;DHT22;11231;50.746;4.272;2023-04-24T09:44:14;13.60;99.90
22130;DHT22;11231;50.746;4.272;2023-04-24T09:46:42;13.60;99.90
22130;DHT22;11231;50.746;4.272;2023-04-24T09:49:16;13.70;99.90
22130;DHT22;11231;50.746;4.272;2023-04-24T09:51:42;13.40;99.90
22130;DHT22;11231;50.746;4.272;2023-04-24T09:54:26;13.20;99.90
22130;DHT22;11231;50.746;4.272;2023-04-24T09:56:51;13.00;99.90
22130;DHT22;11231;50.746;4.272;2023-04-24T09:59:19;13.30;99.90
22130;DHT22;11231;50.746;4.272;2023-04-24T10:01:46;13.40;99.90
22130;DHT22;11231;50.746;4.272;2023-04-24T10:04:25;13.30;99.90
22130;DHT22;11231;50.746;4.272;2023-04-24T10:06:52;13.50;99.90
22130;DHT22;11231;50.746;4.272;2023-04-24T10:09:20;13.60;99.90
22130;DHT22;11231;50.746;4.272;2023-04-24T10:11:48;13.70;99.90
22130;DHT22;11231;50.746;4.272;2023-04-24T10:14:16;13.90;99.90
22130;DHT22;11231;50.746;4.272;2023-04-24T10:16:44;14.00;99.90
22130;DHT22;11231;50.746;4.272;2023-04-24T10:19:10;13.80;99.90
22130;DHT22;11231;50.746;4.272;2023-04-24T10:21:40;14.30;99.90
22130;DHT22;11231;50.746;4.272;2023-04-24T10:24:12;14.80;99.90
22130;DHT22;11231;50.746;4.272;2023-04-24T10:26:38;15.10;99.90
22130;DHT22;11231;50.746;4.272;2023-04-24T10:29:05;15.10;99.90
22130;DHT22;11231;50.746;4.272;2023-04-24T10:31:36;14.90;99.90
22130;DHT22;11231;50.746;4.272;2023-04-24T10:34:03;14.50;99.90
22130;DHT22;11231;50.746;4.272;2023-04-24T10:36:30;14.30;99.90
22130;DHT22;11231;50.746;4.272;2023-04-24T10:38:59;13.90;99.90
22130;DHT22;11231;50.746;4.272;2023-04-24T10:41:25;13.80;99.90
22130;DHT22;11231;50.746;4.272;2023-04-24T10:44:08;13.40;99.90
22130;DHT22;11231;50.746;4.272;2023-04-24T10:46:36;13.00;99.90
22130;DHT22;11231;50.746;4.272;2023-04-24T10:49:07;13.00;99.90
22130;DHT22;11231;50.746;4.272;2023-04-24T10:51:50;13.10;99.90
22130;DHT22;11231;50.746;4.272;2023-04-24T10:54:29;13.40;99.90
22130;DHT22;11231;50.746;4.272;2023-04-24T10:59:50;14.50;99.90
22130;DHT22;11231;50.746;4.272;2023-04-24T11:02:16;14.60;99.90
22130;DHT22;11231;50.746;4.272;2023-04-24T11:04:45;14.30;99.90
22130;DHT22;11231;50.746;4.272;2023-04-24T11:07:12;14.70;99.90
22130;DHT22;11231;50.746;4.272;2023-04-24T11:09:38;14.80;99.90
22130;DHT22;11231;50.746;4.272;2023-04-24T11:12:08;15.20;99.90
22130;DHT22;11231;50.746;4.272;2023-04-24T11:17:32;15.00;99.90
22130;DHT22;11231;50.746;4.272;2023-04-24T11:20:05;14.60;99.90
22130;DHT22;11231;50.746;4.272;2023-04-24T11:22:36;14.10;99.90
22130;DHT22;11231;50.746;4.272;2023-04-24T11:25:03;14.20;99.90
22130;DHT22;11231;50.746;4.272;2023-04-24T11:27:38;14.30;99.90
22130;DHT22;11231;50.746;4.272;2023-04-24T11:30:04;14.10;99.90
22130;DHT22;11231;50.746;4.272;2023-04-24T11:35:15;13.80;99.90
22130;DHT22;11231;50.746;4.272;2023-04-24T11:37:43;13.70;99.90
22130;DHT22;11231;50.746;4.272;2023-04-24T11:40:13;14.00;99.90
22130;DHT22;11231;50.746;4.272;2023-04-24T11:42:45;14.30;99.90
22130;DHT22;11231;50.746;4.272;2023-04-24T11:45:16;14.60;99.90
22130;DHT22;11231;50.746;4.272;2023-04-24T11:47:43;15.00;99.90
22130;DHT22;11231;50.746;4.272;2023-04-24T11:50:12;15.20;99.90
22130;DHT22;11231;50.746;4.272;2023-04-24T11:52:40;15.40;99.90
22130;DHT22;11231;50.746;4.272;2023-04-24T11:55:26;15.50;99.90
22130;DHT22;11231;50.746;4.272;2023-04-24T11:57:57;15.20;99.90
22130;DHT22;11231;50.746;4.272;2023-04-24T12:00:24;15.50;99.90
22130;DHT22;11231;50.746;4.272;2023-04-24T12:02:51;15.80;99.90
22130;DHT22;11231;50.746;4.272;2023-04-24T12:07:46;16.70;99.90
22130;DHT22;11231;50.746;4.272;2023-04-24T12:10:12;17.10;99.90
22130;DHT22;11231;50.746;4.272;2023-04-24T12:12:38;17.60;99.90
22130;DHT22;11231;50.746;4.272;2023-04-24T12:15:07;18.20;99.90
22130;DHT22;11231;50.746;4.272;2023-04-24T12:17:35;17.80;99.90
22130;DHT22;11231;50.746;4.272;2023-04-24T12:20:06;17.00;99.90
22130;DHT22;11231;50.746;4.272;2023-04-24T12:22:55;16.60;99.90
22130;DHT22;11231;50.746;4.272;2023-04-24T12:25:23;17.10;99.90
22130;DHT22;11231;50.746;4.272;2023-04-24T12:28:11;17.40;99.90
22130;DHT22;11231;50.746;4.272;2023-04-24T12:30:47;16.90;99.90
22130;DHT22;11231;50.746;4.272;2023-04-24T12:33:18;16.00;99.90
22130;DHT22;11231;50.746;4.272;2023-04-24T12:35:45;16.00;99.90
22130;DHT22;11231;50.746;4.272;2023-04-24T12:38:21;16.00;99.90
22130;DHT22;11231;50.746;4.272;2023-04-24T12:40:47;16.10;99.90
22130;DHT22;11231;50.746;4.272;2023-04-24T12:43:17;16.40;99.90
22130;DHT22;11231;50.746;4.272;2023-04-24T12:45:43;16.70;99.90
22130;DHT22;11231;50.746;4.272;2023-04-24T12:48:10;16.70;99.90
22130;DHT22;11231;50.746;4.272;2023-04-24T12:50:37;16.80;99.90
22130;DHT22;11231;50.746;4.272;2023-04-24T12:53:03;16.60;99.90
22130;DHT22;11231;50.746;4.272;2023-04-24T12:55:29;16.90;99.90
22130;DHT22;11231;50.746;4.272;2023-04-24T12:57:54;16.60;99.90
22130;DHT22;11231;50.746;4.272;2023-04-24T13:00:21;16.20;99.90
22130;DHT22;11231;50.746;4.272;2023-04-24T13:02:47;15.90;99.90
22130;DHT22;11231;50.746;4.272;2023-04-24T13:05:13;15.70;99.90
22130;DHT22;11231;50.746;4.272;2023-04-24T13:07:39;15.70;99.90
22130;DHT22;11231;50.746;4.272;2023-04-24T13:10:06;15.70;99.90
22130;DHT22;11231;50.746;4.272;2023-04-24T13:12:32;15.80;99.90
22130;DHT22;11231;50.746;4.272;2023-04-24T13:14:58;15.90;99.90
22130;DHT22;11231;50.746;4.272;2023-04-24T13:17:24;15.90;99.90
22130;DHT22;11231;50.746;4.272;2023-04-24T13:19:51;15.70;99.90
22130;DHT22;11231;50.746;4.272;2023-04-24T13:22:17;15.60;99.90
22130;DHT22;11231;50.746;4.272;2023-04-24T13:24:46;15.20;99.90
22130;DHT22;11231;50.746;4.272;2023-04-24T13:27:14;15.40;99.90
22130;DHT22;11231;50.746;4.272;2023-04-24T13:29:40;15.30;99.90
22130;DHT22;11231;50.746;4.272;2023-04-24T13:32:07;15.30;99.90
22130;DHT22;11231;50.746;4.272;2023-04-24T13:34:33;15.50;99.90
22130;DHT22;11231;50.746;4.272;2023-04-24T13:37:00;15.80;99.90
22130;DHT22;11231;50.746;4.272;2023-04-24T13:39:26;16.00;99.90
22130;DHT22;11231;50.746;4.272;2023-04-24T13:41:53;15.60;99.90
22130;DHT22;11231;50.746;4.272;2023-04-24T13:44:20;15.20;99.90
22130;DHT22;11231;50.746;4.272;2023-04-24T13:46:48;15.20;99.90
22130;DHT22;11231;50.746;4.272;2023-04-24T13:49:14;15.20;99.90
22130;DHT22;11231;50.746;4.272;2023-04-24T13:51:41;15.10;99.90
22130;DHT22;11231;50.746;4.272;2023-04-24T13:54:07;15.00;99.90
22130;DHT22;11231;50.746;4.272;2023-04-24T13:56:34;15.10;99.90
22130;DHT22;11231;50.746;4.272;2023-04-24T13:58:59;14.90;99.90
22130;DHT22;11231;50.746;4.272;2023-04-24T14:01:26;14.60;99.90
22130;DHT22;11231;50.746;4.272;2023-04-24T14:03:56;14.50;99.90
22130;DHT22;11231;50.746;4.272;2023-04-24T14:06:22;14.50;99.90
22130;DHT22;11231;50.746;4.272;2023-04-24T14:08:49;14.30;99.90
22130;DHT22;11231;50.746;4.272;2023-04-24T14:11:16;14.40;99.90
22130;DHT22;11231;50.746;4.272;2023-04-24T14:13:42;14.50;99.90
22130;DHT22;11231;50.746;4.272;2023-04-24T14:16:09;14.50;99.90
22130;DHT22;11231;50.746;4.272;2023-04-24T14:18:35;14.40;99.90
22130;DHT22;11231;50.746;4.272;2023-04-24T14:21:02;14.30;99.90
22130;DHT22;11231;50.746;4.272;2023-04-24T14:23:28;14.00;99.90
22130;DHT22;11231;50.746;4.272;2023-04-24T14:25:56;13.90;99.90
22130;DHT22;11231;50.746;4.272;2023-04-24T14:28:22;13.90;99.90
22130;DHT22;11231;50.746;4.272;2023-04-24T14:30:48;13.80;99.90
22130;DHT22;11231;50.746;4.272;2023-04-24T14:33:14;13.70;99.90
22130;DHT22;11231;50.746;4.272;2023-04-24T14:35:41;13.70;99.90
22130;DHT22;11231;50.746;4.272;2023-04-24T14:38:09;14.00;99.90
22130;DHT22;11231;50.746;4.272;2023-04-24T14:40:35;14.10;99.90
22130;DHT22;11231;50.746;4.272;2023-04-24T14:43:01;14.10;99.90
22130;DHT22;11231;50.746;4.272;2023-04-24T14:45:29;14.20;99.90
22130;DHT22;11231;50.746;4.272;2023-04-24T14:47:55;14.40;99.90
22130;DHT22;11231;50.746;4.272;2023-04-24T14:50:21;14.40;99.90
22130;DHT22;11231;50.746;4.272;2023-04-24T14:52:47;14.70;99.90
22130;DHT22;11231;50.746;4.272;2023-04-24T14:55:13;14.80;99.90
22130;DHT22;11231;50.746;4.272;2023-04-24T14:57:40;14.90;99.90
22130;DHT22;11231;50.746;4.272;2023-04-24T15:00:07;15.10;99.90
22130;DHT22;11231;50.746;4.272;2023-04-24T15:02:36;15.00;99.90
22130;DHT22;11231;50.746;4.272;2023-04-24T15:05:06;15.00;99.90
22130;DHT22;11231;50.746;4.272;2023-04-24T15:07:32;14.90;99.90
22130;DHT22;11231;50.746;4.272;2023-04-24T15:09:58;14.90;99.90
22130;DHT22;11231;50.746;4.272;2023-04-24T15:12:24;14.90;99.90
22130;DHT22;11231;50.746;4.272;2023-04-24T15:14:50;15.00;99.90
22130;DHT22;11231;50.746;4.272;2023-04-24T15:17:16;15.20;99.90
22130;DHT22;11231;50.746;4.272;2023-04-24T15:19:42;15.10;99.90
22130;DHT22;11231;50.746;4.272;2023-04-24T15:22:09;14.90;99.90
22130;DHT22;11231;50.746;4.272;2023-04-24T15:24:35;14.80;99.90
22130;DHT22;11231;50.746;4.272;2023-04-24T15:27:00;14.80;99.90
22130;DHT22;11231;50.746;4.272;2023-04-24T15:29:27;14.80;99.90
22130;DHT22;11231;50.746;4.272;2023-04-24T15:31:53;14.70;99.90
22130;DHT22;11231;50.746;4.272;2023-04-24T15:34:19;14.70;99.90
22130;DHT22;11231;50.746;4.272;2023-04-24T15:36:45;14.70;99.90
22130;DHT22;11231;50.746;4.272;2023-04-24T15:39:11;14.60;99.90
22130;DHT22;11231;50.746;4.272;2023-04-24T15:41:37;14.70;99.90
22130;DHT22;11231;50.746;4.272;2023-04-24T15:44:03;14.70;99.90
22130;DHT22;11231;50.746;4.272;2023-04-24T15:46:28;14.70;99.90